createdAt,value
2023-03-22T00:01:46.801Z,98782.19
2023-03-22T00:04:13.385Z,98778.94
2023-03-22T00:06:39.904Z,98790.78
2023-03-22T00:09:06.443Z,98800.34
2023-03-22T00:11:32.942Z,98791.63
2023-03-22T00:13:59.700Z,98793.97
2023-03-22T00:16:26.595Z,98798.75
2023-03-22T00:18:53.174Z,98796.16
2023-03-22T00:21:19.894Z,98798.50
2023-03-22T00:23:46.441Z,98800.22
2023-03-22T00:26:14.233Z,98800.84
2023-03-22T00:28:40.880Z,98792.38
2023-03-22T00:31:08.222Z,98790.69
2023-03-22T00:33:35.318Z,98795.13
2023-03-22T00:36:04.976Z,98794.38
2023-03-22T00:38:42.613Z,98787.63
2023-03-22T00:41:14.335Z,98787.50
2023-03-22T00:43:41.163Z,98778.44
2023-03-22T00:46:08.518Z,98791.97
2023-03-22T00:48:35.286Z,98782.78
2023-03-22T00:51:01.827Z,98790.00
2023-03-22T00:53:32.882Z,98780.44
2023-03-22T00:55:59.967Z,98775.66
2023-03-22T00:58:26.498Z,98765.53
2023-03-22T01:00:53.153Z,98766.75
2023-03-22T01:03:21.840Z,98773.47
2023-03-22T01:05:51.652Z,98782.41
2023-03-22T01:08:18.138Z,98757.00
2023-03-22T01:10:45.353Z,98764.59
2023-03-22T01:13:12.475Z,98715.63
2023-03-22T01:15:39.030Z,98759.06
2023-03-22T01:18:05.812Z,98753.53
2023-03-22T01:20:32.306Z,98752.00
2023-03-22T01:22:59.482Z,98752.00
2023-03-22T01:25:26.038Z,98759.06
2023-03-22T01:27:52.539Z,98736.50
2023-03-22T01:30:19.308Z,98745.38
2023-03-22T01:32:45.753Z,98745.09
2023-03-22T01:35:12.339Z,98751.41
2023-03-22T01:37:38.890Z,98754.47
2023-03-22T01:40:06.613Z,98741.72
2023-03-22T01:42:33.044Z,98741.97
2023-03-22T01:45:14.517Z,98737.50
2023-03-22T01:47:48.039Z,98736.75
2023-03-22T01:50:15.044Z,98726.75
2023-03-22T01:52:41.527Z,98730.72
2023-03-22T01:55:09.373Z,98727.78
2023-03-22T01:57:39.429Z,98725.63
2023-03-22T02:00:15.244Z,98723.72
2023-03-22T02:02:43.639Z,98717.72
2023-03-22T02:05:10.282Z,98677.56
2023-03-22T02:07:37.739Z,98722.03
2023-03-22T02:10:05.152Z,98719.28
2023-03-22T02:12:37.331Z,98719.28
2023-03-22T02:15:19.016Z,98709.41
2023-03-22T02:18:06.644Z,98716.50
2023-03-22T02:20:52.918Z,98722.31
2023-03-22T02:23:25.525Z,98715.25
2023-03-22T02:26:00.923Z,98723.56
2023-03-22T02:28:46.308Z,98712.19
2023-03-22T02:31:16.871Z,98706.63
2023-03-22T02:34:06.114Z,98714.66
2023-03-22T02:36:42.569Z,98711.59
2023-03-22T02:39:36.266Z,98725.16
2023-03-22T02:42:10.214Z,98703.50
2023-03-22T02:44:46.762Z,98719.78
2023-03-22T02:47:23.748Z,98710.38
2023-03-22T02:49:57.020Z,98719.47
2023-03-22T02:53:02.970Z,98706.88
2023-03-22T02:55:52.200Z,98708.88
2023-03-22T02:58:47.189Z,98709.47
2023-03-22T03:01:21.305Z,98709.75
2023-03-22T03:03:50.029Z,98706.97
2023-03-22T03:06:22.144Z,98704.34
2023-03-22T03:08:50.900Z,98690.72
2023-03-22T03:11:17.981Z,98698.56
2023-03-22T03:13:48.025Z,98696.31
2023-03-22T03:16:17.494Z,98688.84
2023-03-22T03:18:48.474Z,98696.78
2023-03-22T03:21:37.087Z,98669.47
2023-03-22T03:24:06.251Z,98702.66
2023-03-22T03:26:53.937Z,98708.63
2023-03-22T03:29:33.337Z,98706.63
2023-03-22T03:32:21.720Z,98708.19
2023-03-22T03:34:57.103Z,98705.84
2023-03-22T03:37:28.858Z,98699.56
2023-03-22T03:40:09.559Z,98705.09
2023-03-22T03:42:38.865Z,98699.56
2023-03-22T03:45:06.452Z,98708.81
2023-03-22T03:47:34.481Z,98699.38
2023-03-22T03:50:00.961Z,98704.38
2023-03-22T03:52:27.576Z,98701.03
2023-03-22T03:54:55.282Z,98699.78
2023-03-22T03:57:22.087Z,98691.94
2023-03-22T03:59:48.842Z,98696.25
2023-03-22T04:02:16.717Z,98694.53
2023-03-22T04:04:43.331Z,98698.38
2023-03-22T04:07:10.385Z,98664.31
2023-03-22T04:09:39.072Z,98705.44
2023-03-22T04:12:05.976Z,98702.69
2023-03-22T04:14:32.352Z,98702.69
2023-03-22T04:16:58.953Z,98696.19
2023-03-22T04:19:25.938Z,98704.50
2023-03-22T04:21:53.133Z,98699.91
2023-03-22T04:24:21.889Z,98692.38
2023-03-22T04:26:48.745Z,98701.44
2023-03-22T04:29:16.076Z,98700.97
2023-03-22T04:31:42.700Z,98684.06
2023-03-22T04:34:09.232Z,98678.41
2023-03-22T04:36:39.429Z,98695.31
2023-03-22T04:39:10.465Z,98678.34
2023-03-22T04:41:37.500Z,98689.78
2023-03-22T04:44:05.445Z,98679.34
2023-03-22T04:46:34.165Z,98687.19
2023-03-22T04:49:01.029Z,98661.41
2023-03-22T04:51:28.124Z,98686.88
2023-03-22T04:53:54.752Z,98679.03
2023-03-22T04:56:21.692Z,98680.28
2023-03-22T04:58:48.174Z,98672.56
2023-03-22T05:01:16.178Z,98677.16
2023-03-22T05:03:47.257Z,98677.16
2023-03-22T05:06:14.574Z,98651.69
2023-03-22T05:08:41.325Z,98651.38
2023-03-22T05:11:14.068Z,98653.97
2023-03-22T05:13:40.978Z,98665.66
2023-03-22T05:16:08.595Z,98655.06
2023-03-22T05:18:37.972Z,98670.72
2023-03-22T05:21:06.682Z,98642.19
2023-03-22T05:23:33.316Z,98662.72
2023-03-22T05:26:01.629Z,98661.47
2023-03-22T05:28:28.707Z,98663.03
2023-03-22T05:30:57.107Z,98666.53
2023-03-22T05:33:23.871Z,98656.69
2023-03-22T05:35:51.200Z,98659.59
2023-03-22T05:38:17.918Z,98663.03
2023-03-22T05:40:45.220Z,98662.72
2023-03-22T05:43:12.117Z,98658.69
2023-03-22T05:45:38.706Z,98662.53
2023-03-22T05:48:05.430Z,98663.13
2023-03-22T05:50:32.344Z,98649.81
2023-03-22T05:52:59.183Z,98671.25
2023-03-22T05:55:25.784Z,98660.94
2023-03-22T05:57:54.050Z,98671.69
2023-03-22T06:00:21.810Z,98651.09
2023-03-22T06:02:49.054Z,98663.63
2023-03-22T06:05:17.022Z,98658.47
2023-03-22T06:07:43.811Z,98633.00
2023-03-22T06:10:15.168Z,98652.38
2023-03-22T06:12:41.733Z,98659.56
2023-03-22T06:15:09.217Z,98662.06
2023-03-22T06:17:36.486Z,98671.03
2023-03-22T06:20:09.315Z,98661.19
2023-03-22T06:22:35.872Z,98629.31
2023-03-22T06:25:02.765Z,98673.63
2023-03-22T06:27:29.574Z,98667.59
2023-03-22T06:29:55.959Z,98676.22
2023-03-22T06:32:23.613Z,98676.03
2023-03-22T06:34:59.097Z,98673.38
2023-03-22T06:37:25.614Z,98670.69
2023-03-22T06:39:52.271Z,98679.13
2023-03-22T06:42:19.158Z,98677.25
2023-03-22T06:44:45.675Z,98684.91
2023-03-22T06:47:12.458Z,98671.69
2023-03-22T06:49:39.229Z,98662.31
2023-03-22T06:52:05.810Z,98683.38
2023-03-22T06:54:32.203Z,98684.53
2023-03-22T06:56:58.674Z,98679.34
2023-03-22T06:59:25.224Z,98675.41
2023-03-22T07:01:51.644Z,98651.09
2023-03-22T07:04:18.448Z,98637.03
2023-03-22T07:06:45.051Z,98671.16
2023-03-22T07:09:12.257Z,98690.13
2023-03-22T07:11:38.833Z,98647.50
2023-03-22T07:14:05.403Z,98673.66
2023-03-22T07:16:31.894Z,98680.94
2023-03-22T07:18:58.454Z,98672.56
2023-03-22T07:21:24.863Z,98669.97
2023-03-22T07:23:51.263Z,98651.41
2023-03-22T07:26:17.793Z,98654.91
2023-03-22T07:28:44.613Z,98643.06
2023-03-22T07:31:12.305Z,98659.22
2023-03-22T07:33:39.504Z,98648.75
2023-03-22T07:36:07.400Z,98652.72
2023-03-22T07:38:34.727Z,98647.28
2023-03-22T07:41:01.204Z,98648.94
2023-03-22T07:43:27.763Z,98644.47
2023-03-22T07:45:54.386Z,98631.53
2023-03-22T07:48:22.780Z,98655.69
2023-03-22T07:50:49.847Z,98637.75
2023-03-22T07:53:16.310Z,98637.56
2023-03-22T07:55:42.744Z,98633.53
2023-03-22T07:58:09.328Z,98631.59
2023-03-22T08:00:35.801Z,98613.63
2023-03-22T08:03:02.302Z,98618.25
2023-03-22T08:05:28.933Z,98614.44
2023-03-22T08:07:56.821Z,98619.06
2023-03-22T08:10:23.681Z,98616.53
2023-03-22T08:12:50.354Z,98615.00
2023-03-22T08:15:16.905Z,98610.22
2023-03-22T08:17:43.340Z,98607.91
2023-03-22T08:20:10.387Z,98605.59
2023-03-22T08:22:36.935Z,98606.59
2023-03-22T08:25:07.207Z,98605.06
2023-03-22T08:27:33.657Z,98583.44
2023-03-22T08:30:00.795Z,98605.28
2023-03-22T08:32:27.234Z,98598.38
2023-03-22T08:34:53.709Z,98595.06
2023-03-22T08:37:20.362Z,98599.13
2023-03-22T08:39:47.105Z,98598.03
2023-03-22T08:42:13.647Z,98589.34
2023-03-22T08:44:40.139Z,98591.78
2023-03-22T08:47:07.248Z,98588.19
2023-03-22T08:49:33.826Z,98579.72
2023-03-22T08:52:00.426Z,98572.84
2023-03-22T08:54:33.526Z,98580.28
2023-03-22T08:57:00.680Z,98567.56
2023-03-22T08:59:27.863Z,98569.03
2023-03-22T09:01:54.355Z,98573.38
2023-03-22T09:04:20.973Z,98558.59
2023-03-22T09:06:47.456Z,98550.19
2023-03-22T09:09:14.607Z,98563.31
2023-03-22T09:11:42.683Z,98550.06
2023-03-22T09:14:09.986Z,98554.59
2023-03-22T09:16:36.625Z,98550.06
2023-03-22T09:19:03.612Z,98547.25
2023-03-22T09:21:30.585Z,98549.47
2023-03-22T09:23:57.205Z,98536.91
2023-03-22T09:26:24.289Z,98538.19
2023-03-22T09:28:51.144Z,98524.19
2023-03-22T09:31:20.556Z,98541.13
2023-03-22T09:33:47.754Z,98532.38
2023-03-22T09:36:14.330Z,98521.41
2023-03-22T09:38:42.209Z,98534.31
2023-03-22T09:41:47.853Z,98516.22
2023-03-22T09:44:19.774Z,98521.66
2023-03-22T09:46:49.663Z,98521.59
2023-03-22T09:49:22.602Z,98511.25
2023-03-22T09:51:51.002Z,98500.25
2023-03-22T09:54:38.159Z,98502.66
2023-03-22T09:57:07.670Z,98503.28
2023-03-22T09:59:39.959Z,98508.38
2023-03-22T10:02:52.105Z,98516.59
2023-03-22T10:05:50.721Z,98505.97
2023-03-22T10:08:26.109Z,98499.78
2023-03-22T10:10:52.760Z,98499.94
2023-03-22T10:13:32.852Z,98511.41
2023-03-22T10:16:03.974Z,98511.66
2023-03-22T10:18:36.513Z,98514.38
2023-03-22T10:21:06.123Z,98504.75
2023-03-22T10:23:40.876Z,98501.09
2023-03-22T10:26:09.179Z,98481.66
2023-03-22T10:28:41.206Z,98502.31
2023-03-22T10:31:14.426Z,98491.59
2023-03-22T10:33:50.356Z,98496.47
2023-03-22T10:36:19.142Z,98499.66
2023-03-22T10:38:49.003Z,98496.78
2023-03-22T10:41:20.709Z,98478.09
2023-03-22T10:43:54.372Z,98492.00
2023-03-22T10:46:31.493Z,98496.44
2023-03-22T10:48:59.600Z,98493.22
2023-03-22T10:51:46.415Z,98485.41
2023-03-22T10:54:15.008Z,98493.88
2023-03-22T10:56:41.541Z,98493.56
2023-03-22T10:59:08.693Z,98465.75
2023-03-22T11:01:40.004Z,98493.03
2023-03-22T11:04:09.761Z,98491.50
2023-03-22T11:06:44.351Z,98498.56
2023-03-22T11:09:20.659Z,98469.13
2023-03-22T11:11:56.137Z,98471.84
2023-03-22T11:14:31.842Z,98475.88
2023-03-22T11:17:06.215Z,98486.16
2023-03-22T11:19:37.768Z,98473.00
2023-03-22T11:22:07.164Z,98474.47
2023-03-22T11:24:34.418Z,98484.97
2023-03-22T11:27:24.477Z,98482.28
2023-03-22T11:29:53.738Z,98488.22
2023-03-22T11:32:37.639Z,98480.84
2023-03-22T11:35:26.978Z,98483.91
2023-03-22T11:37:55.831Z,98490.59
2023-03-22T11:40:27.396Z,98480.59
2023-03-22T11:43:16.982Z,98475.28
2023-03-22T11:45:46.156Z,98477.88
2023-03-22T11:48:18.680Z,98470.97
2023-03-22T11:50:46.557Z,98462.91
2023-03-22T11:53:16.584Z,98461.28
2023-03-22T11:55:43.786Z,98462.31
2023-03-22T11:58:41.572Z,98452.31
2023-03-22T12:01:12.428Z,98436.69
2023-03-22T12:03:40.666Z,98427.41
2023-03-22T12:06:32.349Z,98443.50
2023-03-22T12:09:06.009Z,98412.53
2023-03-22T12:11:39.665Z,98429.06
2023-03-22T12:14:12.633Z,98433.94
2023-03-22T12:16:46.269Z,98438.19
2023-03-22T12:19:36.714Z,98428.19
2023-03-22T12:22:05.412Z,98434.94
2023-03-22T12:24:32.375Z,98437.63
2023-03-22T12:27:03.137Z,98442.78
2023-03-22T12:29:29.625Z,98432.75
2023-03-22T12:32:12.599Z,98424.09
2023-03-22T12:34:42.104Z,98427.28
2023-03-22T12:37:13.400Z,98411.56
2023-03-22T12:39:49.717Z,98417.50
2023-03-22T12:42:40.456Z,98401.25
2023-03-22T12:45:18.641Z,98405.47
2023-03-22T12:47:52.333Z,98386.72
2023-03-22T12:50:21.916Z,98401.25
2023-03-22T12:52:50.417Z,98399.38
2023-03-22T12:55:24.898Z,98398.72
2023-03-22T12:57:54.481Z,98406.06
2023-03-22T13:00:37.758Z,98399.41
2023-03-22T13:03:17.309Z,98388.50
2023-03-22T13:06:00.340Z,98369.91
2023-03-22T13:09:04.671Z,98398.88
2023-03-22T13:11:31.183Z,98378.00
2023-03-22T13:13:57.810Z,98380.94
2023-03-22T13:16:42.281Z,98382.88
2023-03-22T13:19:27.877Z,98363.53
2023-03-22T13:22:33.894Z,98379.06
2023-03-22T13:25:13.353Z,98382.53
2023-03-22T13:27:45.558Z,98373.03
2023-03-22T13:30:21.714Z,98368.50
2023-03-22T13:32:56.182Z,98371.13
2023-03-22T13:35:28.606Z,98375.03
2023-03-22T13:38:02.680Z,98362.38
2023-03-22T13:40:50.671Z,98379.78
2023-03-22T13:43:17.073Z,98368.09
2023-03-22T13:46:25.956Z,98365.06
2023-03-22T13:49:01.838Z,98360.50
2023-03-22T13:51:31.951Z,98359.66
2023-03-22T13:54:16.150Z,98336.63
2023-03-22T13:56:43.188Z,98343.84
2023-03-22T13:59:31.354Z,98355.66
2023-03-22T14:02:22.046Z,98334.13
2023-03-22T14:04:51.214Z,98335.22
2023-03-22T14:07:31.671Z,98342.78
2023-03-22T14:10:06.555Z,98341.81
2023-03-22T14:12:41.989Z,98339.44
2023-03-22T14:15:09.026Z,98330.22
2023-03-22T14:18:16.899Z,98351.13
2023-03-22T14:20:43.997Z,98327.00
